sensor_id;sensor_type;location;lat;lon;timestamp;temperature;humidity
12015;DHT22;6066;48.138;16.402;2023-01-25T00:00:48;3.00;99.90
12015;DHT22;6066;48.138;16.402;2023-01-25T00:03:15;2.90;99.90
12015;DHT22;6066;48.138;16.402;2023-01-25T00:05:42;2.90;99.90
12015;DHT22;6066;48.138;16.402;2023-01-25T00:08:08;2.90;99.90
12015;DHT22;6066;48.138;16.402;2023-01-25T00:10:35;2.90;99.90
12015;DHT22;6066;48.138;16.402;2023-01-25T00:13:02;2.90;99.90
12015;DHT22;6066;48.138;16.402;2023-01-25T00:15:30;2.90;99.90
12015;DHT22;6066;48.138;16.402;2023-01-25T00:17:57;2.90;99.90
12015;DHT22;6066;48.138;16.402;2023-01-25T00:20:24;2.90;99.90
12015;DHT22;6066;48.138;16.402;2023-01-25T00:22:52;2.80;99.90
12015;DHT22;6066;48.138;16.402;2023-01-25T00:25:19;2.80;99.90
12015;DHT22;6066;48.138;16.402;2023-01-25T00:27:46;2.80;99.90
12015;DHT22;6066;48.138;16.402;2023-01-25T00:30:12;2.80;99.90
12015;DHT22;6066;48.138;16.402;2023-01-25T00:32:48;2.80;99.90
12015;DHT22;6066;48.138;16.402;2023-01-25T00:35:18;2.80;99.90
12015;DHT22;6066;48.138;16.402;2023-01-25T00:37:45;2.80;99.90
12015;DHT22;6066;48.138;16.402;2023-01-25T00:40:14;2.80;99.90
12015;DHT22;6066;48.138;16.402;2023-01-25T00:42:41;2.80;99.90
12015;DHT22;6066;48.138;16.402;2023-01-25T00:45:08;2.80;99.90
12015;DHT22;6066;48.138;16.402;2023-01-25T00:47:35;2.80;99.90
12015;DHT22;6066;48.138;16.402;2023-01-25T00:50:04;2.70;99.90
12015;DHT22;6066;48.138;16.402;2023-01-25T00:52:31;2.80;99.90
12015;DHT22;6066;48.138;16.402;2023-01-25T00:54:57;2.70;99.90
12015;DHT22;6066;48.138;16.402;2023-01-25T00:57:24;2.70;99.90
12015;DHT22;6066;48.138;16.402;2023-01-25T00:59:51;2.80;99.90
12015;DHT22;6066;48.138;16.402;2023-01-25T01:02:17;2.70;99.90
12015;DHT22;6066;48.138;16.402;2023-01-25T01:04:45;2.70;99.90
12015;DHT22;6066;48.138;16.402;2023-01-25T01:07:15;2.70;99.90
12015;DHT22;6066;48.138;16.402;2023-01-25T01:09:41;2.70;99.90
12015;DHT22;6066;48.138;16.402;2023-01-25T01:12:08;2.70;99.90
12015;DHT22;6066;48.138;16.402;2023-01-25T01:14:35;2.70;99.90
12015;DHT22;6066;48.138;16.402;2023-01-25T01:17:01;2.70;99.90
12015;DHT22;6066;48.138;16.402;2023-01-25T01:19:28;2.70;99.90
12015;DHT22;6066;48.138;16.402;2023-01-25T01:21:55;2.70;99.90
12015;DHT22;6066;48.138;16.402;2023-01-25T01:24:23;2.70;99.90
12015;DHT22;6066;48.138;16.402;2023-01-25T01:26:49;2.70;99.90
12015;DHT22;6066;48.138;16.402;2023-01-25T01:29:16;2.70;99.90
12015;DHT22;6066;48.138;16.402;2023-01-25T01:31:43;2.70;99.90
12015;DHT22;6066;48.138;16.402;2023-01-25T01:34:11;2.70;99.90
12015;DHT22;6066;48.138;16.402;2023-01-25T01:36:38;2.70;99.90
12015;DHT22;6066;48.138;16.402;2023-01-25T01:39:04;2.70;99.90
12015;DHT22;6066;48.138;16.402;2023-01-25T01:41:32;2.60;99.90
12015;DHT22;6066;48.138;16.402;2023-01-25T01:43:59;2.60;99.90
12015;DHT22;6066;48.138;16.402;2023-01-25T01:46:26;2.60;99.90
12015;DHT22;6066;48.138;16.402;2023-01-25T01:48:55;2.70;99.90
12015;DHT22;6066;48.138;16.402;2023-01-25T01:51:25;2.70;99.90
12015;DHT22;6066;48.138;16.402;2023-01-25T01:53:54;2.70;99.90
12015;DHT22;6066;48.138;16.402;2023-01-25T01:56:24;2.70;99.90
12015;DHT22;6066;48.138;16.402;2023-01-25T01:58:53;2.60;99.90
12015;DHT22;6066;48.138;16.402;2023-01-25T02:01:21;2.60;99.90
12015;DHT22;6066;48.138;16.402;2023-01-25T02:03:48;2.60;99.90
12015;DHT22;6066;48.138;16.402;2023-01-25T02:06:15;2.60;99.90
12015;DHT22;6066;48.138;16.402;2023-01-25T02:08:45;2.60;99.90
12015;DHT22;6066;48.138;16.402;2023-01-25T02:11:12;2.70;99.90
12015;DHT22;6066;48.138;16.402;2023-01-25T02:13:39;2.60;99.90
12015;DHT22;6066;48.138;16.402;2023-01-25T02:16:10;2.60;99.90
12015;DHT22;6066;48.138;16.402;2023-01-25T02:18:39;2.70;99.90
12015;DHT22;6066;48.138;16.402;2023-01-25T02:21:06;2.60;99.90
12015;DHT22;6066;48.138;16.402;2023-01-25T02:23:34;2.60;99.90
12015;DHT22;6066;48.138;16.402;2023-01-25T02:26:06;2.60;99.90
12015;DHT22;6066;48.138;16.402;2023-01-25T02:28:33;2.60;99.90
12015;DHT22;6066;48.138;16.402;2023-01-25T02:31:01;2.60;99.90
12015;DHT22;6066;48.138;16.402;2023-01-25T02:33:28;2.60;99.90
12015;DHT22;6066;48.138;16.402;2023-01-25T02:35:55;2.60;99.90
12015;DHT22;6066;48.138;16.402;2023-01-25T02:38:24;2.60;99.90
12015;DHT22;6066;48.138;16.402;2023-01-25T02:40:51;2.60;99.90
12015;DHT22;6066;48.138;16.402;2023-01-25T02:43:20;2.60;99.90
12015;DHT22;6066;48.138;16.402;2023-01-25T02:45:49;2.60;99.90
12015;DHT22;6066;48.138;16.402;2023-01-25T02:48:17;2.60;99.90
12015;DHT22;6066;48.138;16.402;2023-01-25T02:50:44;2.60;99.90
12015;DHT22;6066;48.138;16.402;2023-01-25T02:53:10;2.60;99.90
12015;DHT22;6066;48.138;16.402;2023-01-25T02:55:37;2.60;99.90
12015;DHT22;6066;48.138;16.402;2023-01-25T02:58:04;2.60;99.90
12015;DHT22;6066;48.138;16.402;2023-01-25T03:00:32;2.60;99.90
12015;DHT22;6066;48.138;16.402;2023-01-25T03:02:58;2.60;99.90
12015;DHT22;6066;48.138;16.402;2023-01-25T03:05:25;2.60;99.90
12015;DHT22;6066;48.138;16.402;2023-01-25T03:07:52;2.70;99.90
12015;DHT22;6066;48.138;16.402;2023-01-25T03:10:18;2.60;99.90
12015;DHT22;6066;48.138;16.402;2023-01-25T03:12:45;2.60;99.90
12015;DHT22;6066;48.138;16.402;2023-01-25T03:15:12;2.60;99.90
12015;DHT22;6066;48.138;16.402;2023-01-25T03:17:40;2.60;99.90
12015;DHT22;6066;48.138;16.402;2023-01-25T03:20:06;2.60;99.90
12015;DHT22;6066;48.138;16.402;2023-01-25T03:22:33;2.60;99.90
12015;DHT22;6066;48.138;16.402;2023-01-25T03:25:00;2.60;99.90
12015;DHT22;6066;48.138;16.402;2023-01-25T03:27:28;2.60;99.90
12015;DHT22;6066;48.138;16.402;2023-01-25T03:29:54;2.60;99.90
12015;DHT22;6066;48.138;16.402;2023-01-25T03:32:21;2.60;99.90
12015;DHT22;6066;48.138;16.402;2023-01-25T03:34:49;2.60;99.90
12015;DHT22;6066;48.138;16.402;2023-01-25T03:37:16;2.60;99.90
12015;DHT22;6066;48.138;16.402;2023-01-25T03:39:42;2.60;99.90
12015;DHT22;6066;48.138;16.402;2023-01-25T03:42:09;2.60;99.90
12015;DHT22;6066;48.138;16.402;2023-01-25T03:44:36;2.60;99.90
12015;DHT22;6066;48.138;16.402;2023-01-25T03:47:02;2.60;99.90
12015;DHT22;6066;48.138;16.402;2023-01-25T03:49:29;2.60;99.90
12015;DHT22;6066;48.138;16.402;2023-01-25T03:51:57;2.60;99.90
12015;DHT22;6066;48.138;16.402;2023-01-25T03:54:24;2.60;99.90
12015;DHT22;6066;48.138;16.402;2023-01-25T03:56:50;2.60;99.90
12015;DHT22;6066;48.138;16.402;2023-01-25T03:59:17;2.60;99.90
12015;DHT22;6066;48.138;16.402;2023-01-25T04:01:43;2.60;99.90
12015;DHT22;6066;48.138;16.402;2023-01-25T04:04:10;2.60;99.90
12015;DHT22;6066;48.138;16.402;2023-01-25T04:06:37;2.60;99.90
12015;DHT22;6066;48.138;16.402;2023-01-25T04:09:05;2.60;99.90
12015;DHT22;6066;48.138;16.402;2023-01-25T04:11:32;2.60;99.90
12015;DHT22;6066;48.138;16.402;2023-01-25T04:13:59;2.60;99.90
12015;DHT22;6066;48.138;16.402;2023-01-25T04:16:25;2.60;99.90
12015;DHT22;6066;48.138;16.402;2023-01-25T04:18:54;2.60;99.90
12015;DHT22;6066;48.138;16.402;2023-01-25T04:21:21;2.60;99.90
12015;DHT22;6066;48.138;16.402;2023-01-25T04:23:48;2.60;99.90
12015;DHT22;6066;48.138;16.402;2023-01-25T04:26:16;2.60;99.90
12015;DHT22;6066;48.138;16.402;2023-01-25T04:28:43;2.60;99.90
12015;DHT22;6066;48.138;16.402;2023-01-25T04:31:09;2.60;99.90
12015;DHT22;6066;48.138;16.402;2023-01-25T04:33:36;2.60;99.90
12015;DHT22;6066;48.138;16.402;2023-01-25T04:36:03;2.60;99.90
12015;DHT22;6066;48.138;16.402;2023-01-25T04:38:30;2.70;99.90
12015;DHT22;6066;48.138;16.402;2023-01-25T04:40:56;2.60;99.90
12015;DHT22;6066;48.138;16.402;2023-01-25T04:43:24;2.60;99.90
12015;DHT22;6066;48.138;16.402;2023-01-25T04:45:51;2.60;99.90
12015;DHT22;6066;48.138;16.402;2023-01-25T04:48:18;2.60;99.90
12015;DHT22;6066;48.138;16.402;2023-01-25T04:50:45;2.60;99.90
12015;DHT22;6066;48.138;16.402;2023-01-25T04:53:12;2.60;99.90
12015;DHT22;6066;48.138;16.402;2023-01-25T04:55:38;2.60;99.90
12015;DHT22;6066;48.138;16.402;2023-01-25T04:58:05;2.60;99.90
12015;DHT22;6066;48.138;16.402;2023-01-25T05:00:33;2.60;99.90
12015;DHT22;6066;48.138;16.402;2023-01-25T05:03:00;2.60;99.90
12015;DHT22;6066;48.138;16.402;2023-01-25T05:05:27;2.60;99.90
12015;DHT22;6066;48.138;16.402;2023-01-25T05:07:54;2.60;99.90
12015;DHT22;6066;48.138;16.402;2023-01-25T05:10:21;2.60;99.90
12015;DHT22;6066;48.138;16.402;2023-01-25T05:12:48;2.60;99.90
12015;DHT22;6066;48.138;16.402;2023-01-25T05:15:14;2.60;99.90
12015;DHT22;6066;48.138;16.402;2023-01-25T05:17:42;2.60;99.90
12015;DHT22;6066;48.138;16.402;2023-01-25T05:20:10;2.60;99.90
12015;DHT22;6066;48.138;16.402;2023-01-25T05:22:36;2.60;99.90
12015;DHT22;6066;48.138;16.402;2023-01-25T05:25:03;2.60;99.90
12015;DHT22;6066;48.138;16.402;2023-01-25T05:27:50;2.60;99.90
12015;DHT22;6066;48.138;16.402;2023-01-25T05:30:16;2.60;99.90
12015;DHT22;6066;48.138;16.402;2023-01-25T05:32:44;2.70;99.90
12015;DHT22;6066;48.138;16.402;2023-01-25T05:35:10;2.60;99.90
12015;DHT22;6066;48.138;16.402;2023-01-25T05:37:37;2.60;99.90
12015;DHT22;6066;48.138;16.402;2023-01-25T05:40:04;2.60;99.90
12015;DHT22;6066;48.138;16.402;2023-01-25T05:42:31;2.60;99.90
12015;DHT22;6066;48.138;16.402;2023-01-25T05:44:58;2.60;99.90
12015;DHT22;6066;48.138;16.402;2023-01-25T05:47:24;2.60;99.90
12015;DHT22;6066;48.138;16.402;2023-01-25T05:49:52;2.60;99.90
12015;DHT22;6066;48.138;16.402;2023-01-25T05:52:19;2.60;99.90
12015;DHT22;6066;48.138;16.402;2023-01-25T05:54:46;2.60;99.90
12015;DHT22;6066;48.138;16.402;2023-01-25T05:57:13;2.60;99.90
12015;DHT22;6066;48.138;16.402;2023-01-25T05:59:40;2.60;99.90
12015;DHT22;6066;48.138;16.402;2023-01-25T06:02:07;2.60;99.90
12015;DHT22;6066;48.138;16.402;2023-01-25T06:04:34;2.60;99.90
12015;DHT22;6066;48.138;16.402;2023-01-25T06:07:02;2.60;99.90
12015;DHT22;6066;48.138;16.402;2023-01-25T06:09:28;2.60;99.90
12015;DHT22;6066;48.138;16.402;2023-01-25T06:11:55;2.60;99.90
12015;DHT22;6066;48.138;16.402;2023-01-25T06:14:22;2.60;99.90
12015;DHT22;6066;48.138;16.402;2023-01-25T06:16:48;2.60;99.90
12015;DHT22;6066;48.138;16.402;2023-01-25T06:19:16;2.60;99.90
12015;DHT22;6066;48.138;16.402;2023-01-25T06:21:43;2.60;99.90
12015;DHT22;6066;48.138;16.402;2023-01-25T06:24:11;2.60;99.90
12015;DHT22;6066;48.138;16.402;2023-01-25T06:26:38;2.60;99.90
12015;DHT22;6066;48.138;16.402;2023-01-25T06:29:05;2.50;99.90
12015;DHT22;6066;48.138;16.402;2023-01-25T06:31:32;2.50;99.90
12015;DHT22;6066;48.138;16.402;2023-01-25T06:33:59;2.50;99.90
12015;DHT22;6066;48.138;16.402;2023-01-25T06:36:28;2.50;99.90
12015;DHT22;6066;48.138;16.402;2023-01-25T06:38:55;2.50;99.90
12015;DHT22;6066;48.138;16.402;2023-01-25T06:41:25;2.50;99.90
12015;DHT22;6066;48.138;16.402;2023-01-25T06:43:52;2.60;99.90
12015;DHT22;6066;48.138;16.402;2023-01-25T06:46:20;2.50;99.90
12015;DHT22;6066;48.138;16.402;2023-01-25T06:48:52;2.50;99.90
12015;DHT22;6066;48.138;16.402;2023-01-25T06:51:19;2.50;99.90
12015;DHT22;6066;48.138;16.402;2023-01-25T06:53:46;2.50;99.90
12015;DHT22;6066;48.138;16.402;2023-01-25T06:56:14;2.60;99.90
12015;DHT22;6066;48.138;16.402;2023-01-25T06:58:48;2.60;99.90
12015;DHT22;6066;48.138;16.402;2023-01-25T07:01:15;2.50;99.90
12015;DHT22;6066;48.138;16.402;2023-01-25T07:03:46;2.50;99.90
12015;DHT22;6066;48.138;16.402;2023-01-25T07:06:13;2.50;99.90
12015;DHT22;6066;48.138;16.402;2023-01-25T07:08:39;2.50;99.90
12015;DHT22;6066;48.138;16.402;2023-01-25T07:11:06;2.60;99.90
12015;DHT22;6066;48.138;16.402;2023-01-25T07:13:36;2.60;99.90
12015;DHT22;6066;48.138;16.402;2023-01-25T07:16:05;2.60;99.90
12015;DHT22;6066;48.138;16.402;2023-01-25T07:18:32;2.50;99.90
12015;DHT22;6066;48.138;16.402;2023-01-25T07:21:02;2.50;99.90
12015;DHT22;6066;48.138;16.402;2023-01-25T07:23:29;2.60;99.90
12015;DHT22;6066;48.138;16.402;2023-01-25T07:25:56;2.50;99.90
12015;DHT22;6066;48.138;16.402;2023-01-25T07:28:23;2.50;99.90
12015;DHT22;6066;48.138;16.402;2023-01-25T07:30:50;2.60;99.90
12015;DHT22;6066;48.138;16.402;2023-01-25T07:33:18;2.60;99.90
12015;DHT22;6066;48.138;16.402;2023-01-25T07:35:45;2.50;99.90
12015;DHT22;6066;48.138;16.402;2023-01-25T07:38:12;2.60;99.90
12015;DHT22;6066;48.138;16.402;2023-01-25T07:40:39;2.60;99.90
12015;DHT22;6066;48.138;16.402;2023-01-25T07:43:05;2.60;99.90
12015;DHT22;6066;48.138;16.402;2023-01-25T07:45:32;2.60;99.90
12015;DHT22;6066;48.138;16.402;2023-01-25T07:47:59;2.60;99.90
12015;DHT22;6066;48.138;16.402;2023-01-25T07:50:27;2.60;99.90
12015;DHT22;6066;48.138;16.402;2023-01-25T07:52:54;2.60;99.90
12015;DHT22;6066;48.138;16.402;2023-01-25T07:55:21;2.60;99.90
12015;DHT22;6066;48.138;16.402;2023-01-25T07:57:47;2.60;99.90
12015;DHT22;6066;48.138;16.402;2023-01-25T08:00:14;2.60;99.90
12015;DHT22;6066;48.138;16.402;2023-01-25T08:02:41;2.60;99.90
12015;DHT22;6066;48.138;16.402;2023-01-25T08:05:08;2.60;99.90
12015;DHT22;6066;48.138;16.402;2023-01-25T08:07:36;2.60;99.90
12015;DHT22;6066;48.138;16.402;2023-01-25T08:10:03;2.60;99.90
12015;DHT22;6066;48.138;16.402;2023-01-25T08:12:31;2.60;99.90
12015;DHT22;6066;48.138;16.402;2023-01-25T08:14:58;2.60;99.90
12015;DHT22;6066;48.138;16.402;2023-01-25T08:17:25;2.70;99.90
12015;DHT22;6066;48.138;16.402;2023-01-25T08:19:55;2.70;99.90
12015;DHT22;6066;48.138;16.402;2023-01-25T08:22:22;2.70;99.90
12015;DHT22;6066;48.138;16.402;2023-01-25T08:24:50;2.70;99.90
12015;DHT22;6066;48.138;16.402;2023-01-25T08:27:17;2.70;99.90
12015;DHT22;6066;48.138;16.402;2023-01-25T08:29:43;2.70;99.90
12015;DHT22;6066;48.138;16.402;2023-01-25T08:32:10;2.70;99.90
12015;DHT22;6066;48.138;16.402;2023-01-25T08:34:37;2.70;99.90
12015;DHT22;6066;48.138;16.402;2023-01-25T08:37:04;2.70;99.90
12015;DHT22;6066;48.138;16.402;2023-01-25T08:39:30;2.70;99.90
12015;DHT22;6066;48.138;16.402;2023-01-25T08:41:58;2.70;99.90
12015;DHT22;6066;48.138;16.402;2023-01-25T08:44:25;2.70;99.90
12015;DHT22;6066;48.138;16.402;2023-01-25T08:46:52;2.70;99.90
12015;DHT22;6066;48.138;16.402;2023-01-25T08:49:18;2.70;99.90
12015;DHT22;6066;48.138;16.402;2023-01-25T08:51:45;2.70;99.90
12015;DHT22;6066;48.138;16.402;2023-01-25T08:54:14;2.80;99.90
12015;DHT22;6066;48.138;16.402;2023-01-25T08:56:41;2.80;99.90
12015;DHT22;6066;48.138;16.402;2023-01-25T08:59:10;2.80;99.90
12015;DHT22;6066;48.138;16.402;2023-01-25T09:01:37;2.80;99.90
12015;DHT22;6066;48.138;16.402;2023-01-25T09:04:04;2.80;99.90
12015;DHT22;6066;48.138;16.402;2023-01-25T09:06:31;2.80;99.90
12015;DHT22;6066;48.138;16.402;2023-01-25T09:08:58;2.80;99.90
12015;DHT22;6066;48.138;16.402;2023-01-25T09:11:24;2.80;99.90
12015;DHT22;6066;48.138;16.402;2023-01-25T09:13:51;2.90;99.90
12015;DHT22;6066;48.138;16.402;2023-01-25T09:16:20;2.90;99.90
12015;DHT22;6066;48.138;16.402;2023-01-25T09:18:52;2.90;99.90
12015;DHT22;6066;48.138;16.402;2023-01-25T09:21:19;2.80;99.90
12015;DHT22;6066;48.138;16.402;2023-01-25T09:23:46;2.80;99.90
12015;DHT22;6066;48.138;16.402;2023-01-25T09:26:14;2.90;99.90
12015;DHT22;6066;48.138;16.402;2023-01-25T09:28:41;2.90;99.90
12015;DHT22;6066;48.138;16.402;2023-01-25T09:31:08;2.90;99.90
12015;DHT22;6066;48.138;16.402;2023-01-25T09:33:37;2.80;99.90
12015;DHT22;6066;48.138;16.402;2023-01-25T09:36:04;2.80;99.90
12015;DHT22;6066;48.138;16.402;2023-01-25T09:38:31;2.90;99.90
12015;DHT22;6066;48.138;16.402;2023-01-25T09:41:01;2.90;99.90
12015;DHT22;6066;48.138;16.402;2023-01-25T09:43:39;2.90;99.90
12015;DHT22;6066;48.138;16.402;2023-01-25T09:46:13;2.90;99.90
12015;DHT22;6066;48.138;16.402;2023-01-25T09:48:45;2.90;99.90
12015;DHT22;6066;48.138;16.402;2023-01-25T09:51:18;2.90;99.90
12015;DHT22;6066;48.138;16.402;2023-01-25T09:53:47;2.90;99.90
12015;DHT22;6066;48.138;16.402;2023-01-25T09:56:16;2.90;99.90
12015;DHT22;6066;48.138;16.402;2023-01-25T09:58:44;2.90;99.90
12015;DHT22;6066;48.138;16.402;2023-01-25T10:01:23;2.90;99.90
12015;DHT22;6066;48.138;16.402;2023-01-25T10:03:56;2.90;99.90
12015;DHT22;6066;48.138;16.402;2023-01-25T10:06:26;3.00;99.90
12015;DHT22;6066;48.138;16.402;2023-01-25T10:08:56;3.00;99.90
12015;DHT22;6066;48.138;16.402;2023-01-25T10:11:25;3.00;99.90
12015;DHT22;6066;48.138;16.402;2023-01-25T10:13:52;3.00;99.90
12015;DHT22;6066;48.138;16.402;2023-01-25T10:16:22;3.00;99.90
12015;DHT22;6066;48.138;16.402;2023-01-25T10:18:52;3.00;99.90
12015;DHT22;6066;48.138;16.402;2023-01-25T10:21:22;3.00;99.90
12015;DHT22;6066;48.138;16.402;2023-01-25T10:23:59;3.00;99.90
12015;DHT22;6066;48.138;16.402;2023-01-25T10:26:31;3.10;99.90
12015;DHT22;6066;48.138;16.402;2023-01-25T10:29:00;3.10;99.90
12015;DHT22;6066;48.138;16.402;2023-01-25T10:31:29;3.20;99.90
12015;DHT22;6066;48.138;16.402;2023-01-25T10:33:58;3.20;99.90
12015;DHT22;6066;48.138;16.402;2023-01-25T10:36:29;3.20;99.90
12015;DHT22;6066;48.138;16.402;2023-01-25T10:38:56;3.30;99.90
12015;DHT22;6066;48.138;16.402;2023-01-25T10:41:26;3.30;99.90
12015;DHT22;6066;48.138;16.402;2023-01-25T10:43:56;3.30;99.90
12015;DHT22;6066;48.138;16.402;2023-01-25T10:46:40;3.30;99.90
12015;DHT22;6066;48.138;16.402;2023-01-25T10:49:14;3.20;99.90
12015;DHT22;6066;48.138;16.402;2023-01-25T10:51:45;3.20;99.90
12015;DHT22;6066;48.138;16.402;2023-01-25T10:54:13;3.20;99.90
12015;DHT22;6066;48.138;16.402;2023-01-25T10:56:40;3.20;99.90
12015;DHT22;6066;48.138;16.402;2023-01-25T10:59:12;3.20;99.90
12015;DHT22;6066;48.138;16.402;2023-01-25T11:01:40;3.30;99.90
12015;DHT22;6066;48.138;16.402;2023-01-25T11:04:20;3.30;99.90
12015;DHT22;6066;48.138;16.402;2023-01-25T11:06:49;3.30;99.90
12015;DHT22;6066;48.138;16.402;2023-01-25T11:12:02;3.30;99.90
12015;DHT22;6066;48.138;16.402;2023-01-25T11:14:29;3.30;99.90
12015;DHT22;6066;48.138;16.402;2023-01-25T11:16:57;3.30;99.90
12015;DHT22;6066;48.138;16.402;2023-01-25T11:19:25;3.30;99.90
12015;DHT22;6066;48.138;16.402;2023-01-25T11:21:54;3.30;99.90
12015;DHT22;6066;48.138;16.402;2023-01-25T11:24:24;3.30;99.90
12015;DHT22;6066;48.138;16.402;2023-01-25T11:26:51;3.30;99.90
12015;DHT22;6066;48.138;16.402;2023-01-25T11:29:36;3.30;99.90
12015;DHT22;6066;48.138;16.402;2023-01-25T11:32:04;3.20;99.90
12015;DHT22;6066;48.138;16.402;2023-01-25T11:34:39;3.20;99.90
12015;DHT22;6066;48.138;16.402;2023-01-25T11:37:10;3.20;99.90
12015;DHT22;6066;48.138;16.402;2023-01-25T11:39:45;3.20;99.90
12015;DHT22;6066;48.138;16.402;2023-01-25T11:42:19;3.20;99.90
12015;DHT22;6066;48.138;16.402;2023-01-25T11:45:01;3.20;99.90
12015;DHT22;6066;48.138;16.402;2023-01-25T11:47:38;3.20;99.90
12015;DHT22;6066;48.138;16.402;2023-01-25T11:50:06;3.20;99.90
12015;DHT22;6066;48.138;16.402;2023-01-25T11:52:47;3.10;99.90
12015;DHT22;6066;48.138;16.402;2023-01-25T11:55:20;3.10;99.90
12015;DHT22;6066;48.138;16.402;2023-01-25T11:57:53;3.10;99.90
12015;DHT22;6066;48.138;16.402;2023-01-25T12:00:29;3.10;99.90
12015;DHT22;6066;48.138;16.402;2023-01-25T12:03:12;3.10;99.90
12015;DHT22;6066;48.138;16.402;2023-01-25T12:05:47;3.10;99.90
12015;DHT22;6066;48.138;16.402;2023-01-25T12:08:23;3.10;99.90
12015;DHT22;6066;48.138;16.402;2023-01-25T12:10:54;3.00;99.90
12015;DHT22;6066;48.138;16.402;2023-01-25T12:13:23;3.00;99.90
12015;DHT22;6066;48.138;16.402;2023-01-25T12:16:01;3.00;99.90
12015;DHT22;6066;48.138;16.402;2023-01-25T12:18:40;3.00;99.90
12015;DHT22;6066;48.138;16.402;2023-01-25T12:21:10;3.00;99.90
12015;DHT22;6066;48.138;16.402;2023-01-25T12:26:27;3.00;99.90
12015;DHT22;6066;48.138;16.402;2023-01-25T12:28:56;3.00;99.90
12015;DHT22;6066;48.138;16.402;2023-01-25T12:31:25;2.90;99.90
12015;DHT22;6066;48.138;16.402;2023-01-25T12:33:56;2.90;99.90
12015;DHT22;6066;48.138;16.402;2023-01-25T12:36:26;2.90;99.90
12015;DHT22;6066;48.138;16.402;2023-01-25T12:38:55;2.90;99.90
12015;DHT22;6066;48.138;16.402;2023-01-25T12:41:27;2.90;99.90
12015;DHT22;6066;48.138;16.402;2023-01-25T12:43:57;2.90;99.90
12015;DHT22;6066;48.138;16.402;2023-01-25T12:46:25;2.90;99.90
12015;DHT22;6066;48.138;16.402;2023-01-25T12:48:54;2.90;99.90
12015;DHT22;6066;48.138;16.402;2023-01-25T12:51:23;2.90;99.90
12015;DHT22;6066;48.138;16.402;2023-01-25T12:53:51;2.90;99.90
12015;DHT22;6066;48.138;16.402;2023-01-25T12:56:26;2.90;99.90
12015;DHT22;6066;48.138;16.402;2023-01-25T12:58:58;2.90;99.90
12015;DHT22;6066;48.138;16.402;2023-01-25T13:01:29;3.00;99.90
12015;DHT22;6066;48.138;16.402;2023-01-25T13:04:08;3.00;99.90
12015;DHT22;6066;48.138;16.402;2023-01-25T13:06:40;3.00;99.90
12015;DHT22;6066;48.138;16.402;2023-01-25T13:09:10;3.10;99.90
12015;DHT22;6066;48.138;16.402;2023-01-25T13:11:39;3.10;99.90
12015;DHT22;6066;48.138;16.402;2023-01-25T13:14:25;3.10;99.90
12015;DHT22;6066;48.138;16.402;2023-01-25T13:16:53;3.10;99.90
12015;DHT22;6066;48.138;16.402;2023-01-25T13:19:20;3.00;99.90
12015;DHT22;6066;48.138;16.402;2023-01-25T13:21:47;3.00;99.90
12015;DHT22;6066;48.138;16.402;2023-01-25T13:24:16;3.00;99.90
12015;DHT22;6066;48.138;16.402;2023-01-25T13:26:46;3.00;99.90
12015;DHT22;6066;48.138;16.402;2023-01-25T13:32:00;2.90;99.90
12015;DHT22;6066;48.138;16.402;2023-01-25T13:37:14;2.90;99.90
12015;DHT22;6066;48.138;16.402;2023-01-25T13:39:42;2.90;99.90
12015;DHT22;6066;48.138;16.402;2023-01-25T13:42:16;3.00;99.90
12015;DHT22;6066;48.138;16.402;2023-01-25T13:44:44;2.90;99.90
12015;DHT22;6066;48.138;16.402;2023-01-25T13:47:14;2.90;99.90
12015;DHT22;6066;48.138;16.402;2023-01-25T13:49:43;3.00;99.90
12015;DHT22;6066;48.138;16.402;2023-01-25T13:52:11;2.90;99.90
12015;DHT22;6066;48.138;16.402;2023-01-25T13:54:41;2.90;99.90
12015;DHT22;6066;48.138;16.402;2023-01-25T13:57:10;2.90;99.90
12015;DHT22;6066;48.138;16.402;2023-01-25T13:59:37;2.90;99.90
12015;DHT22;6066;48.138;16.402;2023-01-25T14:02:05;2.90;99.90
12015;DHT22;6066;48.138;16.402;2023-01-25T14:04:38;2.80;99.90
12015;DHT22;6066;48.138;16.402;2023-01-25T14:07:05;2.80;99.90
12015;DHT22;6066;48.138;16.402;2023-01-25T14:09:34;2.80;99.90
12015;DHT22;6066;48.138;16.402;2023-01-25T14:12:01;2.80;99.90
12015;DHT22;6066;48.138;16.402;2023-01-25T14:14:31;2.70;99.90
12015;DHT22;6066;48.138;16.402;2023-01-25T14:17:14;2.70;99.90
12015;DHT22;6066;48.138;16.402;2023-01-25T14:19:42;2.70;99.90
12015;DHT22;6066;48.138;16.402;2023-01-25T14:22:17;2.60;99.90
12015;DHT22;6066;48.138;16.402;2023-01-25T14:24:45;2.60;99.90
12015;DHT22;6066;48.138;16.402;2023-01-25T14:27:11;2.60;99.90
12015;DHT22;6066;48.138;16.402;2023-01-25T14:29:39;2.50;99.90
12015;DHT22;6066;48.138;16.402;2023-01-25T14:32:05;2.50;99.90
12015;DHT22;6066;48.138;16.402;2023-01-25T14:34:32;2.50;99.90
12015;DHT22;6066;48.138;16.402;2023-01-25T14:37:11;2.40;99.90
12015;DHT22;6066;48.138;16.402;2023-01-25T14:39:39;2.40;99.90
12015;DHT22;6066;48.138;16.402;2023-01-25T14:42:06;2.40;99.90
12015;DHT22;6066;48.138;16.402;2023-01-25T14:44:33;2.40;99.90
12015;DHT22;6066;48.138;16.402;2023-01-25T14:47:18;2.40;99.90
12015;DHT22;6066;48.138;16.402;2023-01-25T14:49:45;2.40;99.90
12015;DHT22;6066;48.138;16.402;2023-01-25T14:52:13;2.40;99.90
12015;DHT22;6066;48.138;16.402;2023-01-25T14:54:43;2.30;99.90
12015;DHT22;6066;48.138;16.402;2023-01-25T14:57:30;2.30;99.90
12015;DHT22;6066;48.138;16.402;2023-01-25T14:59:58;2.30;99.90
12015;DHT22;6066;48.138;16.402;2023-01-25T15:02:27;2.30;99.90
12015;DHT22;6066;48.138;16.402;2023-01-25T15:04:57;2.30;99.90
12015;DHT22;6066;48.138;16.402;2023-01-25T15:07:39;2.30;99.90
12015;DHT22;6066;48.138;16.402;2023-01-25T15:10:14;2.30;99.90
12015;DHT22;6066;48.138;16.402;2023-01-25T15:12:41;2.20;99.90
12015;DHT22;6066;48.138;16.402;2023-01-25T15:15:20;2.30;99.90
12015;DHT22;6066;48.138;16.402;2023-01-25T15:17:48;2.20;99.90
12015;DHT22;6066;48.138;16.402;2023-01-25T15:20:29;2.20;99.90
12015;DHT22;6066;48.138;16.402;2023-01-25T15:22:58;2.20;99.90
12015;DHT22;6066;48.138;16.402;2023-01-25T15:25:25;2.20;99.90
12015;DHT22;6066;48.138;16.402;2023-01-25T15:27:55;2.10;99.90
12015;DHT22;6066;48.138;16.402;2023-01-25T15:30:21;2.10;99.90
12015;DHT22;6066;48.138;16.402;2023-01-25T15:32:48;2.20;99.90
12015;DHT22;6066;48.138;16.402;2023-01-25T15:35:16;2.20;99.90
12015;DHT22;6066;48.138;16.402;2023-01-25T15:37:43;2.10;99.90
12015;DHT22;6066;48.138;16.402;2023-01-25T15:40:12;2.10;99.90
12015;DHT22;6066;48.138;16.402;2023-01-25T15:42:38;2.10;99.90
12015;DHT22;6066;48.138;16.402;2023-01-25T15:45:06;2.10;99.90
12015;DHT22;6066;48.138;16.402;2023-01-25T15:47:33;2.10;99.90
12015;DHT22;6066;48.138;16.402;2023-01-25T15:50:00;2.10;99.90
12015;DHT22;6066;48.138;16.402;2023-01-25T15:52:27;2.00;99.90
12015;DHT22;6066;48.138;16.402;2023-01-25T15:54:54;2.00;99.90
12015;DHT22;6066;48.138;16.402;2023-01-25T15:57:25;2.00;99.90
12015;DHT22;6066;48.138;16.402;2023-01-25T15:59:52;2.00;99.90
12015;DHT22;6066;48.138;16.402;2023-01-25T16:02:20;2.00;99.90
12015;DHT22;6066;48.138;16.402;2023-01-25T16:04:47;2.00;99.90